Time;durP1;ratioP1;P1;durP2;ratioP2;P2;SDS_P1;SDS_P2;PMS_P1;PMS_P2;Temp;Humidity;BMP_temperature;BMP_pressure;BME280_temperature;BME280_humidity;BME280_pressure;Samples;Min_cycle;Max_cycle;Signal;HPM_P1;HPM_P2
2022/10/19 00:01:09;;;;;;;0.52;0.52;;;;;;;7.43;96.38;98622.06;5093360;28;20229;-83
2022/10/19 00:03:37;;;;;;;0.60;0.60;;;;;;;7.41;96.49;98620.66;5093187;28;20071;-84
2022/10/19 00:06:15;;;;;;;0.60;0.60;;;;;;;7.43;96.49;98619.38;5093175;28;20511;-83
2022/10/19 00:08:42;;;;;;;0.60;0.60;;;;;;;7.46;96.35;98612.72;5092367;28;20403;-83
2022/10/19 00:11:12;;;;;;;0.60;0.60;;;;;;;7.49;96.08;98613.06;5093251;28;20063;-84
2022/10/19 00:13:39;;;;;;;0.60;0.60;;;;;;;7.53;95.99;98605.38;5093365;28;20117;-84
2022/10/19 00:16:12;;;;;;;0.50;0.50;;;;;;;7.55;95.94;98603.28;5093404;28;20048;-84
2022/10/19 00:18:40;;;;;;;0.60;0.60;;;;;;;7.56;95.81;98610.25;5094318;28;20154;-85
2022/10/19 00:21:08;;;;;;;0.60;0.60;;;;;;;7.56;95.92;98591.47;5092919;28;20048;-85
2022/10/19 00:23:36;;;;;;;0.52;0.52;;;;;;;7.58;95.59;98592.88;5093066;28;20113;-85
2022/10/19 00:26:03;;;;;;;0.60;0.60;;;;;;;7.58;95.63;98590.19;5092493;28;20063;-84
2022/10/19 00:28:30;;;;;;;0.60;0.60;;;;;;;7.55;95.72;98581.78;5092676;28;20048;-84
2022/10/19 00:31:10;;;;;;;0.60;0.60;;;;;;;7.51;95.65;98578.72;5091324;28;20052;-84
2022/10/19 00:33:41;;;;;;;0.60;0.60;;;;;;;7.48;95.86;98581.09;5093036;28;20505;-85
2022/10/19 00:36:35;;;;;;;0.60;0.60;;;;;;;7.45;96.17;98573.50;5092392;28;20501;-84
2022/10/19 00:39:04;;;;;;;0.57;0.57;;;;;;;7.41;96.29;98569.66;5090714;28;20051;-83
2022/10/19 00:41:32;;;;;;;0.60;0.60;;;;;;;7.40;96.22;98576.06;5091081;28;20230;-84
2022/10/19 00:44:03;;;;;;;0.52;0.52;;;;;;;7.37;96.23;98567.44;5090754;28;20044;-84
2022/10/19 00:46:32;;;;;;;0.60;0.60;;;;;;;7.33;96.28;98558.19;5092519;28;20605;-84
2022/10/19 00:49:06;;;;;;;0.60;0.60;;;;;;;7.35;96.50;98553.44;5091866;28;20056;-83
2022/10/19 00:51:40;;;;;;;0.60;0.60;;;;;;;7.30;96.40;98566.72;5074597;28;20044;-83
2022/10/19 00:54:08;;;;;;;0.50;0.50;;;;;;;7.31;96.52;98562.19;5091886;28;20147;-83
2022/10/19 00:56:38;;;;;;;0.50;0.50;;;;;;;7.30;96.40;98572.09;5091101;28;20101;-82
2022/10/19 00:59:05;;;;;;;0.60;0.60;;;;;;;7.19;96.16;98570.25;5091990;28;20059;-82
2022/10/19 01:01:33;;;;;;;0.50;0.50;;;;;;;7.12;96.38;98567.66;5091999;28;20530;-83
2022/10/19 01:04:02;;;;;;;0.60;0.60;;;;;;;7.06;96.44;98567.75;5092099;28;20048;-84
2022/10/19 01:06:29;;;;;;;0.60;0.60;;;;;;;7.04;96.90;98577.91;5091125;28;20054;-84
2022/10/19 01:08:58;;;;;;;0.60;0.60;;;;;;;7.03;96.90;98558.31;5073793;28;20478;-83
2022/10/19 01:11:50;;;;;;;0.60;0.60;;;;;;;7.07;96.98;98566.72;5091892;28;20052;-84
2022/10/19 01:14:27;;;;;;;0.70;0.70;;;;;;;7.10;97.04;98561.72;5090485;28;20048;-84
2022/10/19 01:17:31;;;;;;;0.60;0.60;;;;;;;7.16;96.94;98559.94;5091442;28;20048;-83
2022/10/19 01:20:07;;;;;;;0.60;0.60;;;;;;;7.16;96.81;98565.31;5073784;28;20048;-84
2022/10/19 01:22:47;;;;;;;0.60;0.60;;;;;;;7.15;96.62;98558.34;5092154;28;20131;-84
2022/10/19 01:25:22;;;;;;;0.60;0.60;;;;;;;7.14;96.68;98559.38;5091290;28;20513;-84
2022/10/19 01:27:53;;;;;;;0.60;0.60;;;;;;;7.13;96.98;98555.06;5090244;28;20048;-84
2022/10/19 01:30:30;;;;;;;0.50;0.50;;;;;;;7.13;97.14;98561.22;5091718;28;20417;-84
2022/10/19 01:33:06;;;;;;;0.60;0.60;;;;;;;7.15;97.34;98555.66;5091411;28;20054;-84
2022/10/19 01:35:39;;;;;;;0.70;0.70;;;;;;;7.18;97.49;98547.13;5091075;28;20451;-84
2022/10/19 01:38:09;;;;;;;0.60;0.60;;;;;;;7.19;97.66;98534.50;5091208;28;20106;-83
2022/10/19 01:40:55;;;;;;;0.60;0.60;;;;;;;7.21;97.73;98522.50;5091395;28;20489;-83
2022/10/19 01:43:44;;;;;;;0.60;0.60;;;;;;;7.23;98.02;98533.00;5091457;28;20051;-83
2022/10/19 01:46:21;;;;;;;0.60;0.60;;;;;;;7.20;98.13;98512.81;5091099;28;20110;-84
2022/10/19 01:49:00;;;;;;;0.60;0.60;;;;;;;7.18;98.57;98506.88;5091319;28;20510;-84
2022/10/19 01:51:29;;;;;;;0.60;0.60;;;;;;;7.20;98.70;98495.91;5089970;28;20059;-83
2022/10/19 01:54:03;;;;;;;0.60;0.60;;;;;;;7.20;98.85;98487.84;5090068;28;20143;-83
2022/10/19 01:56:31;;;;;;;0.60;0.60;;;;;;;7.21;99.02;98487.59;5090186;28;20062;-83
2022/10/19 01:59:00;;;;;;;0.60;0.60;;;;;;;7.21;99.32;98484.91;5073301;28;20044;-84
2022/10/19 02:01:29;;;;;;;0.60;0.60;;;;;;;7.23;99.01;98482.81;5091164;28;20055;-84
2022/10/19 02:03:57;;;;;;;0.50;0.50;;;;;;;7.21;99.15;98482.25;5068270;28;20390;-83
2022/10/19 02:06:24;;;;;;;0.60;0.60;;;;;;;7.20;99.16;98490.53;5068554;28;20087;-83
2022/10/19 02:08:52;;;;;;;0.50;0.50;;;;;;;7.21;99.09;98486.78;5068459;28;20055;-83
2022/10/19 02:11:20;;;;;;;0.60;0.60;;;;;;;7.20;99.21;98477.94;5052008;28;20484;-83
2022/10/19 02:13:54;;;;;;;0.60;0.60;;;;;;;7.24;99.21;98473.75;5052217;28;20118;-85
2022/10/19 02:16:33;;;;;;;0.60;0.60;;;;;;;7.23;99.14;98474.78;5051871;28;20123;-84
2022/10/19 02:19:01;;;;;;;0.50;0.50;;;;;;;7.25;99.17;98475.34;5051750;28;20045;-84
2022/10/19 02:21:28;;;;;;;0.60;0.60;;;;;;;7.32;98.87;98469.88;5051940;28;20446;-84
2022/10/19 02:23:55;;;;;;;0.50;0.50;;;;;;;7.32;98.90;98468.00;5068625;28;20040;-84
2022/10/19 02:26:22;;;;;;;0.50;0.50;;;;;;;7.32;98.75;98462.63;5068574;28;20082;-84
2022/10/19 02:28:50;;;;;;;0.60;0.60;;;;;;;7.29;98.69;98457.75;5073138;28;20048;-84
2022/10/19 02:31:20;;;;;;;0.60;0.60;;;;;;;7.30;98.61;98458.56;5052872;28;20495;-85
2022/10/19 02:33:50;;;;;;;0.60;0.60;;;;;;;7.28;98.84;98461.47;5070062;28;20051;-84
2022/10/19 02:36:17;;;;;;;0.60;0.60;;;;;;;7.26;99.12;98452.81;5052090;28;20071;-84
2022/10/19 02:38:44;;;;;;;0.60;0.60;;;;;;;7.28;99.32;98444.53;5068892;28;20070;-84
2022/10/19 02:41:17;;;;;;;0.60;0.60;;;;;;;7.32;99.38;98443.03;5077378;28;20051;-84
2022/10/19 02:43:48;;;;;;;0.60;0.60;;;;;;;7.29;99.40;98441.63;5089517;28;20498;-83
2022/10/19 02:46:35;;;;;;;0.60;0.60;;;;;;;7.29;99.52;98435.44;5089651;28;20627;-82
2022/10/19 02:49:03;;;;;;;0.60;0.60;;;;;;;7.34;99.68;98439.06;5075972;28;20070;-84
2022/10/19 02:51:37;;;;;;;0.60;0.60;;;;;;;7.37;99.67;98433.22;5093807;28;20063;-84
2022/10/19 02:54:06;;;;;;;0.60;0.60;;;;;;;7.33;99.68;98429.34;5094212;28;20052;-84
2022/10/19 02:56:34;;;;;;;0.63;0.63;;;;;;;7.34;99.62;98439.06;5094187;28;20055;-85
2022/10/19 02:59:02;;;;;;;0.60;0.60;;;;;;;7.36;99.89;98433.44;5093950;28;20062;-84
2022/10/19 03:01:32;;;;;;;0.60;0.60;;;;;;;7.37;99.84;98422.47;5093534;28;20044;-83
2022/10/19 03:03:59;;;;;;;0.60;0.60;;;;;;;7.32;99.82;98419.69;5094476;28;20139;-83
2022/10/19 03:06:26;;;;;;;0.60;0.60;;;;;;;7.32;99.95;98425.06;5094305;28;20375;-83
2022/10/19 03:08:53;;;;;;;0.60;0.60;;;;;;;7.31;100.00;98419.91;5094356;28;20059;-84
2022/10/19 03:11:20;;;;;;;0.60;0.60;;;;;;;7.28;100.00;98413.16;5093795;28;20422;-84
2022/10/19 03:13:47;;;;;;;0.60;0.60;;;;;;;7.22;100.00;98403.38;5094416;28;20054;-84
2022/10/19 03:16:18;;;;;;;0.60;0.60;;;;;;;7.19;100.00;98398.50;5093305;28;20044;-84
2022/10/19 03:18:47;;;;;;;0.60;0.60;;;;;;;7.20;100.00;98400.09;5093195;28;20125;-85
2022/10/19 03:21:15;;;;;;;0.50;0.50;;;;;;;7.19;100.00;98403.00;5092731;28;20040;-83
2022/10/19 03:23:41;;;;;;;0.50;0.50;;;;;;;7.16;100.00;98397.09;5093722;28;20036;-85
2022/10/19 03:26:13;;;;;;;0.60;0.60;;;;;;;7.15;100.00;98395.44;5094023;28;20105;-85
2022/10/19 03:28:40;;;;;;;0.60;0.60;;;;;;;7.15;100.00;98389.25;5093250;28;20052;-84
2022/10/19 03:31:07;;;;;;;0.60;0.60;;;;;;;7.13;100.00;98386.00;5093952;28;20552;-84
2022/10/19 03:33:35;;;;;;;0.52;0.52;;;;;;;7.11;100.00;98390.78;5092925;28;20509;-84
2022/10/19 03:36:32;;;;;;;0.60;0.60;;;;;;;7.13;100.00;98383.31;5092475;28;20059;-85
2022/10/19 03:39:02;;;;;;;0.60;0.60;;;;;;;7.07;100.00;98379.72;5050869;28;20110;-84
2022/10/19 03:41:34;;;;;;;0.60;0.60;;;;;;;7.04;100.00;98377.50;5034881;28;20162;-85
2022/10/19 03:44:01;;;;;;;0.50;0.50;;;;;;;7.03;100.00;98380.41;5050713;28;20040;-84
2022/10/19 03:46:29;;;;;;;0.50;0.50;;;;;;;7.04;100.00;98368.63;5034952;28;20048;-84
2022/10/19 03:48:55;;;;;;;0.60;0.60;;;;;;;7.01;100.00;98369.09;5051056;28;20191;-84
2022/10/19 03:51:25;;;;;;;0.60;0.60;;;;;;;7.01;99.96;98372.59;5050591;28;20137;-83
2022/10/19 03:53:55;;;;;;;0.60;0.60;;;;;;;7.03;99.94;98365.13;5050682;28;20171;-84
2022/10/19 03:56:27;;;;;;;0.60;0.60;;;;;;;7.06;99.93;98367.34;5035781;28;20454;-85
2022/10/19 03:58:59;;;;;;;0.60;0.60;;;;;;;7.07;99.87;98363.63;5049663;28;20416;-83
2022/10/19 04:01:32;;;;;;;0.50;0.50;;;;;;;7.11;100.00;98366.63;5050284;28;20072;-84
2022/10/19 04:04:01;;;;;;;0.55;0.55;;;;;;;7.11;99.94;98359.38;5033551;28;20072;-83
2022/10/19 04:06:31;;;;;;;0.60;0.60;;;;;;;7.09;100.00;98356.16;5050116;28;20106;-83
2022/10/19 04:08:59;;;;;;;0.60;0.60;;;;;;;7.11;99.89;98366.63;5049958;28;20531;-85
2022/10/19 04:11:28;;;;;;;0.60;0.60;;;;;;;7.09;99.85;98344.59;5050025;28;20041;-85
2022/10/19 04:13:56;;;;;;;0.60;0.60;;;;;;;7.08;99.81;98342.97;5050414;28;20160;-84
2022/10/19 04:16:25;;;;;;;0.60;0.60;;;;;;;7.06;99.81;98329.78;5068072;28;20056;-84
2022/10/19 04:18:52;;;;;;;0.60;0.60;;;;;;;7.06;99.90;98342.38;5091645;28;20052;-85
2022/10/19 04:21:28;;;;;;;0.60;0.60;;;;;;;7.06;99.83;98335.13;5090568;28;20831;-85
2022/10/19 04:24:18;;;;;;;0.60;0.60;;;;;;;7.06;99.98;98324.41;5093211;28;20044;-84
2022/10/19 04:26:50;;;;;;;0.60;0.60;;;;;;;7.10;99.99;98330.13;5093165;28;20052;-85
2022/10/19 04:29:22;;;;;;;0.60;0.60;;;;;;;7.09;99.94;98323.13;5092328;28;20047;-84
2022/10/19 04:31:55;;;;;;;0.60;0.60;;;;;;;7.13;99.92;98322.41;5075205;28;20116;-84
2022/10/19 04:34:23;;;;;;;0.60;0.60;;;;;;;7.18;100.00;98326.25;5092171;28;20040;-85
2022/10/19 04:36:50;;;;;;;0.60;0.60;;;;;;;7.21;99.70;98331.13;5092133;28;20099;-82
2022/10/19 04:39:17;;;;;;;0.60;0.60;;;;;;;7.24;99.66;98320.75;5074438;28;20044;-82
2022/10/19 04:41:44;;;;;;;0.60;0.60;;;;;;;7.20;99.85;98324.97;5091945;28;20139;-86
2022/10/19 04:44:11;;;;;;;0.50;0.50;;;;;;;7.28;99.83;98329.94;5089996;28;20055;-86
2022/10/19 04:46:46;;;;;;;0.60;0.60;;;;;;;7.26;99.65;98324.00;5090176;28;20060;-86
2022/10/19 04:49:13;;;;;;;0.50;0.50;;;;;;;7.30;99.61;98318.97;5090663;28;20052;-86
2022/10/19 04:51:47;;;;;;;0.50;0.50;;;;;;;7.30;99.73;98325.16;5092161;28;20395;-86
2022/10/19 04:54:17;;;;;;;0.60;0.60;;;;;;;7.32;99.42;98320.38;5090644;28;20130;-86
2022/10/19 04:56:46;;;;;;;0.60;0.60;;;;;;;7.33;99.44;98313.94;5074155;28;20435;-84
2022/10/19 04:59:13;;;;;;;0.60;0.60;;;;;;;7.32;99.47;98306.13;5090167;28;20528;-85
2022/10/19 05:01:41;;;;;;;0.60;0.60;;;;;;;7.31;99.63;98302.63;5088813;28;20140;-85
2022/10/19 05:04:13;;;;;;;0.60;0.60;;;;;;;7.34;99.69;98304.84;5091691;28;20545;-84
2022/10/19 05:06:40;;;;;;;0.52;0.52;;;;;;;7.35;99.51;98303.78;5091627;28;20056;-87
2022/10/19 05:09:07;;;;;;;0.60;0.60;;;;;;;7.38;99.31;98307.84;5089946;28;20214;-86
2022/10/19 05:11:39;;;;;;;0.60;0.60;;;;;;;7.35;99.36;98298.41;5074310;28;20113;-87
2022/10/19 05:14:07;;;;;;;0.60;0.60;;;;;;;7.40;98.97;98303.06;5088666;28;20058;-85
2022/10/19 05:16:37;;;;;;;0.60;0.60;;;;;;;7.43;98.88;98309.81;5090088;28;20500;-85
2022/10/19 05:19:11;;;;;;;0.60;0.60;;;;;;;7.46;98.98;98296.72;5079631;28;20121;-84
2022/10/19 05:21:39;;;;;;;0.60;0.60;;;;;;;7.48;99.08;98291.09;5054858;28;20052;-85
2022/10/19 05:24:06;;;;;;;0.60;0.60;;;;;;;7.54;98.71;98292.81;5076650;28;20048;-86
2022/10/19 05:26:36;;;;;;;0.60;0.60;;;;;;;7.58;98.49;98293.97;5074880;28;20052;-84
2022/10/19 05:29:03;;;;;;;0.55;0.55;;;;;;;7.56;98.30;98294.19;5086596;28;20055;-84
2022/10/19 05:31:32;;;;;;;0.55;0.55;;;;;;;7.59;98.24;98291.03;5072478;28;20044;-83
2022/10/19 05:34:03;;;;;;;0.60;0.60;;;;;;;7.60;98.33;98287.31;4734931;28;10000428;-83
2022/10/19 05:36:38;;;;;;;0.60;0.60;;;;;;;7.61;98.12;98288.09;5073588;28;20048;-82
2022/10/19 05:39:09;;;;;;;0.60;0.60;;;;;;;7.64;97.79;98298.34;5069985;28;20056;-83
2022/10/19 05:41:37;;;;;;;0.60;0.60;;;;;;;7.64;97.57;98301.03;5086633;28;20044;-82
2022/10/19 05:44:05;;;;;;;0.60;0.60;;;;;;;7.65;97.58;98293.81;5085911;28;20097;-85
2022/10/19 05:46:33;;;;;;;0.60;0.60;;;;;;;7.65;97.09;98286.56;5087790;28;20055;-86
2022/10/19 05:49:00;;;;;;;0.60;0.60;;;;;;;7.66;96.73;98290.06;5085565;28;20100;-83
2022/10/19 05:51:30;;;;;;;0.60;0.60;;;;;;;7.62;96.53;98280.84;5087408;28;20689;-84
2022/10/19 05:53:57;;;;;;;0.60;0.60;;;;;;;7.63;96.47;98269.09;5082871;28;20051;-84
2022/10/19 05:56:32;;;;;;;0.60;0.60;;;;;;;7.60;96.54;98262.31;5085511;28;20445;-80
2022/10/19 05:59:02;;;;;;;0.60;0.60;;;;;;;7.63;96.69;98277.94;5083762;28;20044;-86
2022/10/19 06:01:33;;;;;;;0.50;0.50;;;;;;;7.60;96.74;98275.75;5077767;28;20059;-84
2022/10/19 06:04:00;;;;;;;0.60;0.60;;;;;;;7.60;96.77;98271.19;5088462;28;20102;-86
2022/10/19 06:06:28;;;;;;;0.60;0.60;;;;;;;7.59;97.08;98274.91;5091055;28;20055;-81
2022/10/19 06:08:57;;;;;;;0.50;0.50;;;;;;;7.61;96.76;98277.38;5076683;28;20098;-85
2022/10/19 06:11:29;;;;;;;0.60;0.60;;;;;;;7.52;96.64;98270.75;5069766;28;20040;-84
2022/10/19 06:13:58;;;;;;;0.60;0.60;;;;;;;7.50;96.91;98262.16;5070602;28;20059;-84
2022/10/19 06:16:29;;;;;;;0.60;0.60;;;;;;;7.50;96.69;98272.91;5069258;28;20410;-85
2022/10/19 06:18:56;;;;;;;0.60;0.60;;;;;;;7.42;96.46;98262.53;5070914;28;20075;-85
2022/10/19 06:21:28;;;;;;;0.60;0.60;;;;;;;7.31;96.50;98256.97;5071724;28;20996;-86
2022/10/19 06:23:57;;;;;;;0.60;0.60;;;;;;;7.26;96.63;98266.81;5074723;28;20144;-85
2022/10/19 06:26:28;;;;;;;0.60;0.60;;;;;;;7.23;96.98;98268.13;5074491;28;20498;-86
2022/10/19 06:28:59;;;;;;;0.60;0.60;;;;;;;7.20;96.93;98273.16;5072757;28;20044;-84
2022/10/19 06:31:31;;;;;;;0.60;0.60;;;;;;;7.16;96.57;98272.81;5074049;28;20052;-85
2022/10/19 06:33:58;;;;;;;0.60;0.60;;;;;;;7.12;96.52;98274.38;5072670;28;20048;-83
2022/10/19 06:36:32;;;;;;;0.60;0.60;;;;;;;7.06;96.41;98276.13;5074222;28;20048;-85
2022/10/19 06:39:00;;;;;;;0.60;0.60;;;;;;;6.98;95.93;98278.38;5073178;28;20052;-86
2022/10/19 06:41:29;;;;;;;0.70;0.70;;;;;;;6.96;95.61;98275.91;5073552;28;20049;-84
2022/10/19 06:44:01;;;;;;;0.60;0.60;;;;;;;6.96;95.50;98278.59;5056989;28;20049;-84
2022/10/19 06:46:31;;;;;;;0.60;0.60;;;;;;;6.96;95.43;98278.59;5074288;28;20052;-84
2022/10/19 06:49:00;;;;;;;0.60;0.60;;;;;;;6.98;95.19;98278.38;5073466;28;20060;-84
2022/10/19 06:51:29;;;;;;;0.60;0.60;;;;;;;6.88;94.98;98271.75;5074813;28;20049;-86
2022/10/19 06:53:56;;;;;;;0.60;0.60;;;;;;;6.90;94.74;98277.69;5077869;28;20045;-84
2022/10/19 06:56:24;;;;;;;0.60;0.60;;;;;;;6.85;94.26;98274.91;5077044;28;20499;-86
2022/10/19 06:58:54;;;;;;;0.60;0.60;;;;;;;6.86;94.21;98265.84;5072387;28;20439;-85
2022/10/19 07:01:25;;;;;;;0.60;0.60;;;;;;;6.84;93.88;98267.94;5073805;28;20150;-85
2022/10/19 07:03:52;;;;;;;0.70;0.70;;;;;;;6.80;93.66;98269.44;5074328;28;20135;-84
2022/10/19 07:06:21;;;;;;;0.60;0.60;;;;;;;6.79;93.43;98259.78;5074034;28;20048;-84
2022/10/19 07:08:51;;;;;;;0.60;0.60;;;;;;;6.79;93.35;98259.78;5074087;28;20427;-84
2022/10/19 07:11:21;;;;;;;0.70;0.70;;;;;;;6.86;93.50;98251.56;5073838;28;20139;-85
2022/10/19 07:13:51;;;;;;;0.60;0.60;;;;;;;6.96;93.12;98249.09;5074650;28;20409;-85
2022/10/19 07:16:21;;;;;;;0.60;0.60;;;;;;;7.08;92.34;98251.75;5072499;28;20074;-85
2022/10/19 07:18:52;;;;;;;0.60;0.60;;;;;;;7.08;91.87;98251.75;5072588;28;20082;-86
2022/10/19 07:21:21;;;;;;;0.60;0.60;;;;;;;7.08;91.73;98251.75;5072240;28;20045;-85
2022/10/19 07:23:48;;;;;;;0.60;0.60;;;;;;;7.04;92.10;98247.88;5073503;28;20052;-85
2022/10/19 07:26:22;;;;;;;0.60;0.60;;;;;;;7.02;92.49;98237.41;5071921;28;20546;-84
2022/10/19 07:28:49;;;;;;;0.60;0.60;;;;;;;7.02;92.50;98242.78;5072558;28;20475;-83
2022/10/19 07:31:20;;;;;;;0.60;0.60;;;;;;;6.98;92.64;98246.19;5073019;28;20515;-85
2022/10/19 07:33:52;;;;;;;0.60;0.60;;;;;;;6.93;92.95;98231.59;5070941;28;20064;-85
2022/10/19 07:36:20;;;;;;;0.60;0.60;;;;;;;6.86;93.78;98233.66;5073262;28;20056;-84
2022/10/19 07:38:47;;;;;;;0.60;0.60;;;;;;;6.82;94.05;98235.16;5072643;28;20082;-84
2022/10/19 07:41:16;;;;;;;0.60;0.60;;;;;;;6.79;94.34;98238.31;5073386;28;20049;-84
2022/10/19 07:43:45;;;;;;;0.60;0.60;;;;;;;6.78;94.60;98242.03;5073257;28;20059;-84
2022/10/19 07:46:18;;;;;;;0.60;0.60;;;;;;;6.80;94.72;98244.50;5071067;28;20045;-84
2022/10/19 07:48:45;;;;;;;0.60;0.60;;;;;;;6.75;94.75;98241.72;5072818;28;20053;-84
2022/10/19 07:51:15;;;;;;;0.63;0.63;;;;;;;6.84;94.46;98238.44;5072556;28;20060;-83
2022/10/19 07:53:43;;;;;;;0.70;0.70;;;;;;;6.89;94.02;98238.53;5071482;28;20574;-86
2022/10/19 07:56:24;;;;;;;0.60;0.60;;;;;;;6.96;93.51;98230.31;5072778;28;20048;-84
2022/10/19 07:58:57;;;;;;;0.70;0.70;;;;;;;6.96;93.20;98235.69;5072588;28;20083;-85
2022/10/19 08:01:43;;;;;;;0.60;0.60;;;;;;;7.03;93.05;98243.59;5070877;28;20099;-84
2022/10/19 08:04:10;;;;;;;0.70;0.70;;;;;;;7.03;92.64;98243.59;5072788;28;20059;-85
2022/10/19 08:06:57;;;;;;;0.60;0.60;;;;;;;7.01;92.46;98246.50;5072757;28;20434;-86
2022/10/19 08:09:25;;;;;;;0.70;0.70;;;;;;;7.05;92.39;98246.84;5071976;28;20065;-85
2022/10/19 08:12:12;;;;;;;0.68;0.68;;;;;;;7.03;92.14;98254.31;5073768;28;20048;-85
2022/10/19 08:14:42;;;;;;;0.60;0.60;;;;;;;7.05;91.65;98252.22;5073954;28;20052;-85
2022/10/19 08:17:10;;;;;;;0.60;0.60;;;;;;;7.04;91.52;98243.38;5072330;28;20048;-84
2022/10/19 08:19:42;;;;;;;0.70;0.70;;;;;;;7.17;91.39;98242.25;5071131;28;20060;-85
2022/10/19 08:22:09;;;;;;;0.60;0.60;;;;;;;7.26;91.10;98232.72;5071815;28;20120;-85
2022/10/19 08:24:36;;;;;;;0.60;0.60;;;;;;;7.32;90.18;98237.16;5072411;28;20538;-83
2022/10/19 08:27:06;;;;;;;0.70;0.70;;;;;;;7.34;90.04;98229.69;5070747;28;20059;-85
2022/10/19 08:29:33;;;;;;;0.70;0.70;;;;;;;7.36;89.61;98238.28;5072373;28;20355;-85
2022/10/19 08:32:00;;;;;;;0.60;0.60;;;;;;;7.30;89.34;98244.63;5071159;28;20133;-85
2022/10/19 08:34:27;;;;;;;0.70;0.70;;;;;;;7.29;89.55;98243.00;5072932;28;20083;-84
2022/10/19 08:36:54;;;;;;;0.65;0.65;;;;;;;7.28;89.03;98232.50;5074330;28;20048;-86
2022/10/19 08:39:22;;;;;;;0.70;0.70;;;;;;;7.35;88.96;98231.28;5071970;28;20053;-85
2022/10/19 08:42:16;;;;;;;0.70;0.70;;;;;;;7.40;88.79;98232.44;5071826;28;20486;-86
2022/10/19 08:45:01;;;;;;;0.70;0.70;;;;;;;7.37;88.92;98229.19;5025856;28;20054;-85
2022/10/19 08:47:35;;;;;;;0.60;0.60;;;;;;;7.35;89.03;98233.16;4993352;28;20250;-85
2022/10/19 08:50:13;;;;;;;0.60;0.60;;;;;;;7.37;88.95;98225.69;4994668;28;20053;-85
2022/10/19 08:52:41;;;;;;;0.63;0.63;;;;;;;7.31;88.53;98223.97;5010555;28;20441;-85
2022/10/19 08:55:12;;;;;;;0.60;0.60;;;;;;;7.26;88.70;98226.56;4993511;28;20247;-86
2022/10/19 08:58:45;;;;;;;0.70;0.70;;;;;;;7.31;88.88;98227.47;4994753;28;20050;-85
2022/10/19 09:01:28;;;;;;;0.70;0.70;;;;;;;7.36;89.06;98224.84;4936068;29;20502;-85
2022/10/19 09:04:05;;;;;;;0.60;0.60;;;;;;;7.41;88.45;98223.31;4959516;29;20074;-85
2022/10/19 09:06:55;;;;;;;0.60;0.60;;;;;;;7.47;88.21;98223.19;4938499;29;20051;-86
2022/10/19 09:09:22;;;;;;;0.60;0.60;;;;;;;7.52;87.99;98230.47;4951809;29;20047;-85
2022/10/19 09:12:02;;;;;;;0.70;0.70;;;;;;;7.60;87.76;98233.59;4937593;29;20043;-84
2022/10/19 09:14:35;;;;;;;0.60;0.60;;;;;;;7.59;87.66;98234.63;4951611;29;20518;-85
2022/10/19 09:17:09;;;;;;;0.60;0.60;;;;;;;7.53;87.86;98243.69;4951201;29;20058;-86
2022/10/19 09:19:36;;;;;;;0.70;0.70;;;;;;;7.45;88.24;98248.66;4935896;29;20547;-85
2022/10/19 09:22:19;;;;;;;0.60;0.60;;;;;;;7.40;88.42;98240.50;4985277;28;20053;-86
2022/10/19 09:24:53;;;;;;;0.60;0.60;;;;;;;7.32;88.66;98244.41;5010403;28;20053;-86
2022/10/19 09:27:25;;;;;;;0.70;0.70;;;;;;;7.28;88.63;98246.72;5009645;28;20057;-85
2022/10/19 09:29:57;;;;;;;0.70;0.70;;;;;;;7.23;88.78;98249.31;5009600;28;20046;-86
2022/10/19 09:32:44;;;;;;;0.63;0.63;;;;;;;7.17;89.10;98244.94;4993121;28;20104;-85
2022/10/19 09:35:42;;;;;;;0.60;0.60;;;;;;;7.12;89.56;98242.16;5043082;28;20074;-86
2022/10/19 09:38:10;;;;;;;0.60;0.60;;;;;;;7.08;89.69;98241.81;5054190;28;21124;-86
2022/10/19 09:40:37;;;;;;;0.70;0.70;;;;;;;7.06;90.20;98243.91;5055071;28;20082;-85
2022/10/19 09:43:22;;;;;;;0.70;0.70;;;;;;;7.09;90.40;98240.78;5068859;28;20040;-87
2022/10/19 09:45:51;;;;;;;0.60;0.60;;;;;;;7.06;90.71;98243.09;5069021;28;20050;-85
2022/10/19 09:48:24;;;;;;;0.65;0.65;;;;;;;7.08;90.97;98235.63;5069916;28;20052;-82
2022/10/19 09:51:03;;;;;;;0.70;0.70;;;;;;;7.14;91.20;98248.91;5067908;28;20075;-84
2022/10/19 09:53:33;;;;;;;0.63;0.63;;;;;;;7.23;91.00;98240.47;5050218;28;20075;-85
2022/10/19 09:56:07;;;;;;;0.70;0.70;;;;;;;7.33;91.03;98240.66;5066414;28;20595;-84
2022/10/19 09:58:34;;;;;;;0.70;0.70;;;;;;;7.39;90.89;98247.72;5032543;28;20155;-85
2022/10/19 10:01:02;;;;;;;0.60;0.60;;;;;;;7.28;90.92;98237.88;5067272;28;20296;-87
2022/10/19 10:03:34;;;;;;;0.70;0.70;;;;;;;7.25;91.05;98249.09;5063922;28;20170;-87
2022/10/19 10:06:04;;;;;;;0.60;0.60;;;;;;;7.23;91.41;98235.91;5065384;28;20518;-84
2022/10/19 10:08:40;;;;;;;0.60;0.60;;;;;;;7.26;91.56;98239.97;4712837;28;10000438;-87
2022/10/19 10:11:15;;;;;;;0.60;0.60;;;;;;;7.25;91.65;98244.53;5045994;28;20068;-84
2022/10/19 10:13:48;;;;;;;0.60;0.60;;;;;;;7.19;91.44;98245.50;5043036;28;20625;-85
2022/10/19 10:16:17;;;;;;;0.60;0.60;;;;;;;7.12;92.12;98244.84;5088492;28;20071;-84
2022/10/19 10:18:55;;;;;;;0.70;0.70;;;;;;;7.24;92.69;98244.78;5086071;28;20094;-84
2022/10/19 10:21:25;;;;;;;0.60;0.60;;;;;;;7.29;92.06;98247.53;5062029;28;20493;-84
2022/10/19 10:24:24;;;;;;;0.63;0.63;;;;;;;7.38;91.92;98241.53;5067308;28;20056;-83
2022/10/19 10:27:04;;;;;;;0.70;0.70;;;;;;;7.37;92.10;98245.28;5076383;28;20560;-84
2022/10/19 10:29:37;;;;;;;0.70;0.70;;;;;;;7.52;92.45;98243.91;5032582;28;20048;-85
2022/10/19 10:32:12;;;;;;;0.70;0.70;;;;;;;7.52;92.08;98235.84;5065644;28;20063;-84
2022/10/19 10:34:55;;;;;;;0.70;0.70;;;;;;;7.43;92.15;98235.44;5070776;28;20058;-83
2022/10/19 10:37:35;;;;;;;0.60;0.60;;;;;;;7.37;92.66;98237.25;5071213;28;20059;-84
2022/10/19 10:40:04;;;;;;;0.70;0.70;;;;;;;7.43;92.91;98248.06;5085905;28;20143;-82
2022/10/19 10:42:43;;;;;;;0.60;0.60;;;;;;;7.35;93.04;98247.41;5085743;28;20156;-84
2022/10/19 10:45:18;;;;;;;0.60;0.60;;;;;;;7.23;93.09;98253.88;5086733;28;20418;-85
2022/10/19 10:47:49;;;;;;;0.60;0.60;;;;;;;7.13;93.60;98251.81;5086093;28;20048;-86
2022/10/19 10:50:31;;;;;;;0.60;0.60;;;;;;;7.09;94.08;98253.34;5081298;28;20047;-87
2022/10/19 10:53:03;;;;;;;;;;;;;;;7.04;94.38;98256.78;5085672;28;20110;-83
2022/10/19 10:55:31;;;;;;;0.60;0.60;;;;;;;6.99;94.59;98253.16;5080190;28;20273;-82
2022/10/19 10:58:33;;;;;;;0.60;0.60;;;;;;;6.97;94.92;98257.97;5066026;28;20052;-84
2022/10/19 11:01:04;;;;;;;0.50;0.50;;;;;;;6.90;94.99;98253.56;5066160;28;20055;-84
2022/10/19 11:03:35;;;;;;;0.68;0.68;;;;;;;6.87;94.90;98251.34;5085541;28;20052;-84
2022/10/19 11:06:02;;;;;;;0.60;0.60;;;;;;;6.79;95.12;98249.06;5083507;28;20052;-84
2022/10/19 11:08:50;;;;;;;0.60;0.60;;;;;;;6.78;95.26;98247.41;5078073;28;20048;-84
2022/10/19 11:11:24;;;;;;;0.70;0.70;;;;;;;6.76;95.63;98254.06;5072756;28;20078;-83
2022/10/19 11:14:05;;;;;;;0.70;0.70;;;;;;;6.76;95.85;98246.84;5072394;28;20461;-85
2022/10/19 11:16:41;;;;;;;0.70;0.70;;;;;;;6.77;95.97;98248.47;5073956;28;20124;-84
2022/10/19 11:19:28;;;;;;;0.60;0.60;;;;;;;6.81;96.08;98246.97;5097355;28;20049;-86
2022/10/19 11:22:29;;;;;;;0.60;0.60;;;;;;;6.81;96.01;98257.69;5079297;28;20410;-84
2022/10/19 11:25:05;;;;;;;0.60;0.60;;;;;;;6.86;96.05;98249.75;5086569;28;20181;-86
2022/10/19 11:27:53;;;;;;;0.60;0.60;;;;;;;6.91;96.02;98255.19;5084594;28;20516;-85
2022/10/19 11:30:24;;;;;;;0.60;0.60;;;;;;;6.91;95.78;98252.50;5089485;28;20422;-84
2022/10/19 11:33:05;;;;;;;0.60;0.60;;;;;;;6.91;95.11;98249.84;5092758;28;20072;-85
2022/10/19 11:35:51;;;;;;;0.60;0.60;;;;;;;6.93;94.97;98245.03;5089246;28;20058;-84
2022/10/19 11:38:39;;;;;;;0.60;0.60;;;;;;;6.95;94.67;98236.75;5079631;28;20048;-84
2022/10/19 11:41:33;;;;;;;0.60;0.60;;;;;;;6.96;94.69;98243.72;5086850;28;20048;-86
2022/10/19 11:44:18;;;;;;;0.60;0.60;;;;;;;6.98;94.71;98235.44;5081034;28;20063;-83
2022/10/19 11:47:13;;;;;;;0.57;0.57;;;;;;;6.98;94.56;98236.25;5082349;28;20052;-86
2022/10/19 11:49:59;;;;;;;0.65;0.65;;;;;;;6.99;94.43;98226.34;5065032;28;20063;-86
2022/10/19 11:52:31;;;;;;;0.60;0.60;;;;;;;6.95;94.19;98208.03;5079321;28;20539;-84
2022/10/19 11:55:33;;;;;;;0.60;0.60;;;;;;;7.06;93.87;98222.44;5068108;28;20503;-84
2022/10/19 11:58:37;;;;;;;0.60;0.60;;;;;;;7.07;93.39;98225.97;5067741;28;20062;-83
2022/10/19 12:01:04;;;;;;;0.60;0.60;;;;;;;7.06;92.98;98225.13;5077543;28;20067;-84
2022/10/19 12:03:31;;;;;;;0.60;0.60;;;;;;;7.09;93.02;98229.19;5088075;28;20043;-86
2022/10/19 12:06:17;;;;;;;0.60;0.60;;;;;;;7.15;92.66;98233.63;5085257;28;20099;-85
2022/10/19 12:09:04;;;;;;;0.65;0.65;;;;;;;7.21;92.60;98240.69;5082433;28;20062;-86